Strona główna
METAR-TAF:

METAR-TAF

Lotnisko :

Port lotniczy Guernsey

Guernsey,

Szerokość geograficzna: 49-26N, Długość geograficzna: 002-36W, wysokość: 102 m

Aktualna obserwacja pogody

Raport powstał 27 minut temu, godzina 07:50 UTC
Wiatr 9 kt od wschodnio-północny wschód
Temperatura 16°C
Wilgotność 68%
Ciśnienie 1032 hPa
Widzialność 10 km lub więcej
Brak chmur poniżej 1500 m i brak chmur cumulonimbus

METAR: EGJB 280750Z 07009KT CAVOK 16/10 Q1032

czas: 09:17 (08:17 UTC)

Prognoza

Raport powstał 3 godziny i 17 minut temu, godzina 05:00 UTC
Prognoza ważna od 28 godzina 06 UTC do 28 godzina 15 UTC
Wiatr 12 kt od wschodnio-północny wschód
Widzialność 10 km lub więcej
Brak chmur poniżej 1500 m i brak chmur cumulonimbus

TAF: EGJB 280500Z 2806/2815 07012KT CAVOK

Obserwacja i prognoza pogody dla ponad 4000 lotnisk (raport METAR i TAF).

Dostępne stacje oznaczono żółtymi i czerwonymi punktami na mapie.

Najedź kursorem aby zobaczyć nazwę stacji.

Kliknij aby zobaczyć obserwacje i prognozy pogody.

Aby zmienić mapę: kliknij na zielony przycisk z czarnym krzyżykiem, aby powiększyć; na zielony przycisk z myślnikiem, aby pomniejszyć; na zielone strzałki, aby przejść do map sąsiednich.


METAR-TAF: